sensor_id;sensor_type;location;lat;lon;timestamp;pressure;altitude;pressure_sealevel;temperature;humidity
59487;BME280;45298;54.918;73.504;2023-01-31T00:00:26;100936.75;;;-21.21;73.72
59487;BME280;45298;54.918;73.504;2023-01-31T00:02:55;100918.66;;;-21.37;73.47
59487;BME280;45298;54.918;73.504;2023-01-31T00:05:25;100948.00;;;-21.27;73.61
59487;BME280;45298;54.918;73.504;2023-01-31T00:07:54;100960.06;;;-21.23;73.07
59487;BME280;45298;54.918;73.504;2023-01-31T00:10:22;100960.59;;;-21.27;73.52
59487;BME280;45298;54.918;73.504;2023-01-31T00:12:51;100984.50;;;-21.22;73.06
59487;BME280;45298;54.918;73.504;2023-01-31T00:15:20;100905.41;;;-21.78;73.93
59487;BME280;45298;54.918;73.504;2023-01-31T00:17:49;101005.69;;;-21.31;73.13
59487;BME280;45298;54.918;73.504;2023-01-31T00:20:17;101004.19;;;-21.29;73.95
59487;BME280;45298;54.918;73.504;2023-01-31T00:22:46;100925.91;;;-21.63;73.91
59487;BME280;45298;54.918;73.504;2023-01-31T00:25:15;100880.13;;;-21.90;73.81
59487;BME280;45298;54.918;73.504;2023-01-31T00:27:44;100962.38;;;-21.37;73.29
59487;BME280;45298;54.918;73.504;2023-01-31T00:30:13;100963.13;;;-21.38;73.71
59487;BME280;45298;54.918;73.504;2023-01-31T00:32:43;100932.41;;;-21.54;73.39
59487;BME280;45298;54.918;73.504;2023-01-31T00:35:11;100882.00;;;-21.87;73.51
59487;BME280;45298;54.918;73.504;2023-01-31T00:37:43;100983.78;;;-21.32;72.71
59487;BME280;45298;54.918;73.504;2023-01-31T00:40:15;100965.88;;;-21.45;73.06
59487;BME280;45298;54.918;73.504;2023-01-31T00:42:45;101016.78;;;-21.29;73.13
59487;BME280;45298;54.918;73.504;2023-01-31T00:45:13;100962.00;;;-21.52;72.56
59487;BME280;45298;54.918;73.504;2023-01-31T00:47:42;101002.16;;;-21.33;72.59
59487;BME280;45298;54.918;73.504;2023-01-31T00:50:13;100995.13;;;-21.47;73.09
59487;BME280;45298;54.918;73.504;2023-01-31T00:52:43;100958.41;;;-21.76;73.00
59487;BME280;45298;54.918;73.504;2023-01-31T00:55:11;100981.69;;;-21.68;72.59
59487;BME280;45298;54.918;73.504;2023-01-31T00:57:40;100980.19;;;-21.66;73.34
59487;BME280;45298;54.918;73.504;2023-01-31T01:00:09;101018.31;;;-21.51;73.25
59487;BME280;45298;54.918;73.504;2023-01-31T01:02:38;100882.50;;;-22.32;72.47
59487;BME280;45298;54.918;73.504;2023-01-31T01:05:07;100896.50;;;-22.26;73.01
59487;BME280;45298;54.918;73.504;2023-01-31T01:07:36;100974.28;;;-21.87;73.18
59487;BME280;45298;54.918;73.504;2023-01-31T01:10:05;101011.91;;;-21.68;73.33
59487;BME280;45298;54.918;73.504;2023-01-31T01:12:34;100961.28;;;-21.92;72.99
59487;BME280;45298;54.918;73.504;2023-01-31T01:15:04;100982.81;;;-21.85;73.34
59487;BME280;45298;54.918;73.504;2023-01-31T01:17:33;101012.03;;;-21.67;72.99
59487;BME280;45298;54.918;73.504;2023-01-31T01:20:03;101007.00;;;-21.77;72.36
59487;BME280;45298;54.918;73.504;2023-01-31T01:22:33;100903.66;;;-22.41;72.81
59487;BME280;45298;54.918;73.504;2023-01-31T01:25:02;100980.94;;;-21.98;72.61
59487;BME280;45298;54.918;73.504;2023-01-31T01:27:30;100998.44;;;-21.90;72.55
59487;BME280;45298;54.918;73.504;2023-01-31T01:29:59;101020.81;;;-21.82;72.00
59487;BME280;45298;54.918;73.504;2023-01-31T01:32:29;100867.28;;;-22.75;72.77
59487;BME280;45298;54.918;73.504;2023-01-31T01:34:58;100997.00;;;-22.07;72.89
59487;BME280;45298;54.918;73.504;2023-01-31T01:37:26;101018.41;;;-21.91;72.55
59487;BME280;45298;54.918;73.504;2023-01-31T01:39:56;101015.75;;;-22.03;72.76
59487;BME280;45298;54.918;73.504;2023-01-31T01:42:25;100998.41;;;-22.10;73.15
59487;BME280;45298;54.918;73.504;2023-01-31T01:44:55;101032.16;;;-21.87;72.91
59487;BME280;45298;54.918;73.504;2023-01-31T01:48:02;101029.66;;;-21.87;73.04
59487;BME280;45298;54.918;73.504;2023-01-31T01:50:41;100994.13;;;-22.11;72.90
59487;BME280;45298;54.918;73.504;2023-01-31T01:53:17;101028.50;;;-21.91;72.87
59487;BME280;45298;54.918;73.504;2023-01-31T01:55:55;101006.22;;;-22.07;72.33
59487;BME280;45298;54.918;73.504;2023-01-31T02:01:24;100981.06;;;-22.07;72.90
59487;BME280;45298;54.918;73.504;2023-01-31T02:03:56;101008.34;;;-21.91;72.86
59487;BME280;45298;54.918;73.504;2023-01-31T02:06:25;100979.03;;;-22.11;72.30
59487;BME280;45298;54.918;73.504;2023-01-31T02:08:54;100874.81;;;-22.75;72.19
59487;BME280;45298;54.918;73.504;2023-01-31T02:11:25;100990.06;;;-22.20;71.78
59487;BME280;45298;54.918;73.504;2023-01-31T02:14:08;101027.84;;;-21.99;71.81
59487;BME280;45298;54.918;73.504;2023-01-31T02:16:37;100991.06;;;-22.28;72.19
59487;BME280;45298;54.918;73.504;2023-01-31T02:19:16;101038.19;;;-22.06;72.12
59487;BME280;45298;54.918;73.504;2023-01-31T02:25:21;101031.88;;;-22.11;71.98
59487;BME280;45298;54.918;73.504;2023-01-31T02:28:17;101038.41;;;-22.13;72.48
59487;BME280;45298;54.918;73.504;2023-01-31T02:46:41;101033.91;;;-22.07;72.27
59487;BME280;45298;54.918;73.504;2023-01-31T02:52:19;100992.97;;;-22.25;71.78
59487;BME280;45298;54.918;73.504;2023-01-31T02:58:09;101006.44;;;-22.04;72.43
59487;BME280;45298;54.918;73.504;2023-01-31T03:00:42;101008.47;;;-22.00;72.12
59487;BME280;45298;54.918;73.504;2023-01-31T03:03:21;101028.91;;;-21.86;72.59
59487;BME280;45298;54.918;73.504;2023-01-31T03:14:32;101022.34;;;-21.95;71.75
59487;BME280;45298;54.918;73.504;2023-01-31T03:17:28;101041.97;;;-21.60;71.91
59487;BME280;45298;54.918;73.504;2023-01-31T03:20:17;101070.94;;;-21.34;71.71
59487;BME280;45298;54.918;73.504;2023-01-31T03:22:54;101065.38;;;-21.19;72.34
59487;BME280;45298;54.918;73.504;2023-01-31T03:25:27;101030.50;;;-21.25;71.90
59487;BME280;45298;54.918;73.504;2023-01-31T03:28:02;101003.28;;;-21.29;72.68
59487;BME280;45298;54.918;73.504;2023-01-31T03:30:38;101012.97;;;-21.13;72.62
59487;BME280;45298;54.918;73.504;2023-01-31T03:33:16;101055.91;;;-20.80;72.56
59487;BME280;45298;54.918;73.504;2023-01-31T03:35:51;100982.84;;;-21.11;71.78
59487;BME280;45298;54.918;73.504;2023-01-31T03:38:29;101011.13;;;-20.83;71.82
59487;BME280;45298;54.918;73.504;2023-01-31T03:41:11;101056.16;;;-20.55;72.04
59487;BME280;45298;54.918;73.504;2023-01-31T03:44:08;101075.47;;;-20.23;71.71
59487;BME280;45298;54.918;73.504;2023-01-31T03:46:43;101082.25;;;-20.12;72.49
59487;BME280;45298;54.918;73.504;2023-01-31T03:49:14;100962.84;;;-20.65;72.29
59487;BME280;45298;54.918;73.504;2023-01-31T03:51:49;101018.06;;;-20.26;71.73
59487;BME280;45298;54.918;73.504;2023-01-31T03:54:26;101087.31;;;-19.78;71.78
59487;BME280;45298;54.918;73.504;2023-01-31T03:57:13;101061.06;;;-19.80;72.07
59487;BME280;45298;54.918;73.504;2023-01-31T03:59:46;101039.84;;;-19.94;71.89
59487;BME280;45298;54.918;73.504;2023-01-31T04:02:24;101052.31;;;-19.73;71.87
59487;BME280;45298;54.918;73.504;2023-01-31T04:04:58;101077.66;;;-19.49;72.19
59487;BME280;45298;54.918;73.504;2023-01-31T04:07:28;101091.91;;;-19.27;72.27
59487;BME280;45298;54.918;73.504;2023-01-31T04:09:57;101066.25;;;-19.44;72.08
59487;BME280;45298;54.918;73.504;2023-01-31T04:12:26;101079.53;;;-19.12;71.36
59487;BME280;45298;54.918;73.504;2023-01-31T04:14:55;101099.75;;;-19.01;71.64
59487;BME280;45298;54.918;73.504;2023-01-31T04:17:24;101029.81;;;-19.24;71.83
59487;BME280;45298;54.918;73.504;2023-01-31T04:19:53;101084.81;;;-18.86;71.73
59487;BME280;45298;54.918;73.504;2023-01-31T04:22:21;101084.59;;;-18.65;71.67
59487;BME280;45298;54.918;73.504;2023-01-31T04:24:50;101043.47;;;-18.74;72.18
59487;BME280;45298;54.918;73.504;2023-01-31T04:27:19;101047.84;;;-18.60;72.32
59487;BME280;45298;54.918;73.504;2023-01-31T04:29:47;100988.44;;;-18.77;72.14
59487;BME280;45298;54.918;73.504;2023-01-31T04:32:16;101097.53;;;-18.01;71.72
59487;BME280;45298;54.918;73.504;2023-01-31T04:34:45;101074.22;;;-18.09;71.64
59487;BME280;45298;54.918;73.504;2023-01-31T04:37:16;101075.59;;;-18.00;71.89
59487;BME280;45298;54.918;73.504;2023-01-31T04:39:45;101047.00;;;-18.11;71.63
59487;BME280;45298;54.918;73.504;2023-01-31T04:42:14;101093.38;;;-17.75;71.26
59487;BME280;45298;54.918;73.504;2023-01-31T04:44:42;101105.13;;;-17.64;71.53
59487;BME280;45298;54.918;73.504;2023-01-31T04:47:11;101121.84;;;-17.54;71.47
59487;BME280;45298;54.918;73.504;2023-01-31T04:49:40;101078.50;;;-17.82;70.94
59487;BME280;45298;54.918;73.504;2023-01-31T04:52:09;101134.56;;;-17.40;71.36
59487;BME280;45298;54.918;73.504;2023-01-31T04:54:38;101097.78;;;-17.47;71.42
59487;BME280;45298;54.918;73.504;2023-01-31T04:57:07;101087.34;;;-17.52;71.00
59487;BME280;45298;54.918;73.504;2023-01-31T04:59:35;101087.13;;;-17.55;70.77
59487;BME280;45298;54.918;73.504;2023-01-31T05:02:04;101076.25;;;-17.66;70.80
59487;BME280;45298;54.918;73.504;2023-01-31T05:04:33;101129.25;;;-17.32;71.13
59487;BME280;45298;54.918;73.504;2023-01-31T05:07:03;101142.13;;;-17.28;70.91
59487;BME280;45298;54.918;73.504;2023-01-31T05:09:32;101078.69;;;-17.67;70.91
59487;BME280;45298;54.918;73.504;2023-01-31T05:12:00;101106.66;;;-17.66;70.66
59487;BME280;45298;54.918;73.504;2023-01-31T05:14:29;101138.59;;;-17.56;70.53
59487;BME280;45298;54.918;73.504;2023-01-31T05:16:58;101115.09;;;-17.53;70.77
59487;BME280;45298;54.918;73.504;2023-01-31T05:19:27;101130.03;;;-17.33;71.21
59487;BME280;45298;54.918;73.504;2023-01-31T05:21:55;101116.47;;;-17.33;70.87
59487;BME280;45298;54.918;73.504;2023-01-31T05:24:29;101076.13;;;-17.55;70.56
59487;BME280;45298;54.918;73.504;2023-01-31T05:26:59;101112.94;;;-17.35;70.16
59487;BME280;45298;54.918;73.504;2023-01-31T05:29:30;101160.47;;;-17.07;70.77
59487;BME280;45298;54.918;73.504;2023-01-31T05:32:00;101155.75;;;-17.14;70.44
59487;BME280;45298;54.918;73.504;2023-01-31T05:34:30;101152.09;;;-17.06;70.57
59487;BME280;45298;54.918;73.504;2023-01-31T05:37:00;101129.88;;;-17.22;70.24
59487;BME280;45298;54.918;73.504;2023-01-31T05:39:30;101132.19;;;-17.25;70.11
59487;BME280;45298;54.918;73.504;2023-01-31T05:42:01;101154.69;;;-17.18;70.04
59487;BME280;45298;54.918;73.504;2023-01-31T05:44:30;101111.09;;;-17.38;69.90
59487;BME280;45298;54.918;73.504;2023-01-31T05:47:00;101151.00;;;-17.10;69.57
59487;BME280;45298;54.918;73.504;2023-01-31T05:49:28;101112.00;;;-17.24;70.00
59487;BME280;45298;54.918;73.504;2023-01-31T05:52:00;101150.06;;;-16.98;69.78
59487;BME280;45298;54.918;73.504;2023-01-31T05:54:29;101125.25;;;-16.89;70.31
59487;BME280;45298;54.918;73.504;2023-01-31T05:56:59;101090.72;;;-17.00;69.68
59487;BME280;45298;54.918;73.504;2023-01-31T05:59:27;101158.25;;;-16.50;69.82
59487;BME280;45298;54.918;73.504;2023-01-31T06:01:58;101164.81;;;-16.41;69.41
59487;BME280;45298;54.918;73.504;2023-01-31T06:04:27;101105.88;;;-16.62;69.30
59487;BME280;45298;54.918;73.504;2023-01-31T06:06:56;101141.72;;;-16.30;70.33
59487;BME280;45298;54.918;73.504;2023-01-31T06:09:25;101141.34;;;-16.23;69.79
59487;BME280;45298;54.918;73.504;2023-01-31T06:11:55;101126.69;;;-16.14;69.15
59487;BME280;45298;54.918;73.504;2023-01-31T06:14:24;101129.63;;;-16.07;69.02
59487;BME280;45298;54.918;73.504;2023-01-31T06:16:53;101050.81;;;-16.49;68.62
59487;BME280;45298;54.918;73.504;2023-01-31T06:19:21;101160.94;;;-15.80;68.60
59487;BME280;45298;54.918;73.504;2023-01-31T06:21:52;101104.59;;;-16.15;69.20
59487;BME280;45298;54.918;73.504;2023-01-31T06:24:21;101131.56;;;-16.03;69.28
59487;BME280;45298;54.918;73.504;2023-01-31T06:26:53;101136.44;;;-15.93;69.10
59487;BME280;45298;54.918;73.504;2023-01-31T06:29:21;101110.78;;;-16.11;69.04
59487;BME280;45298;54.918;73.504;2023-01-31T06:31:50;101140.31;;;-15.85;69.08
59487;BME280;45298;54.918;73.504;2023-01-31T06:34:20;101121.50;;;-15.88;69.25
59487;BME280;45298;54.918;73.504;2023-01-31T06:36:49;101152.22;;;-15.70;69.00
59487;BME280;45298;54.918;73.504;2023-01-31T06:39:18;101120.16;;;-15.82;68.77
59487;BME280;45298;54.918;73.504;2023-01-31T06:41:47;101142.94;;;-15.70;68.48
59487;BME280;45298;54.918;73.504;2023-01-31T06:44:15;101046.56;;;-16.22;69.67
59487;BME280;45298;54.918;73.504;2023-01-31T06:46:44;101134.22;;;-15.73;69.41
59487;BME280;45298;54.918;73.504;2023-01-31T06:49:13;101104.78;;;-15.98;69.71
59487;BME280;45298;54.918;73.504;2023-01-31T06:51:41;101087.31;;;-16.20;69.05
59487;BME280;45298;54.918;73.504;2023-01-31T06:54:10;101119.22;;;-15.97;69.49
59487;BME280;45298;54.918;73.504;2023-01-31T06:56:39;101031.56;;;-16.46;69.46
59487;BME280;45298;54.918;73.504;2023-01-31T06:59:07;101131.75;;;-15.87;68.76
59487;BME280;45298;54.918;73.504;2023-01-31T07:01:36;101156.31;;;-15.72;69.56
59487;BME280;45298;54.918;73.504;2023-01-31T07:04:05;101133.88;;;-15.80;69.53
59487;BME280;45298;54.918;73.504;2023-01-31T07:06:33;101145.16;;;-15.74;69.83
59487;BME280;45298;54.918;73.504;2023-01-31T07:09:02;101113.81;;;-15.75;69.11
59487;BME280;45298;54.918;73.504;2023-01-31T07:11:31;101155.56;;;-15.43;70.07
59487;BME280;45298;54.918;73.504;2023-01-31T07:14:00;101154.38;;;-15.35;69.74
59487;BME280;45298;54.918;73.504;2023-01-31T07:16:28;101093.69;;;-15.57;69.43
59487;BME280;45298;54.918;73.504;2023-01-31T07:18:57;101106.50;;;-15.27;69.13
59487;BME280;45298;54.918;73.504;2023-01-31T07:21:27;101119.00;;;-15.01;69.01
59487;BME280;45298;54.918;73.504;2023-01-31T07:23:56;101079.16;;;-15.01;68.57
59487;BME280;45298;54.918;73.504;2023-01-31T07:26:25;101110.69;;;-14.69;67.75
59487;BME280;45298;54.918;73.504;2023-01-31T07:28:54;101146.03;;;-14.29;68.52
59487;BME280;45298;54.918;73.504;2023-01-31T07:31:23;101151.38;;;-14.09;67.92
59487;BME280;45298;54.918;73.504;2023-01-31T07:33:51;101091.91;;;-14.24;67.50
59487;BME280;45298;54.918;73.504;2023-01-31T07:36:20;101104.84;;;-14.05;67.36
59487;BME280;45298;54.918;73.504;2023-01-31T07:38:55;101131.38;;;-13.70;67.43
59487;BME280;45298;54.918;73.504;2023-01-31T07:41:24;101113.69;;;-13.67;67.47
59487;BME280;45298;54.918;73.504;2023-01-31T07:43:53;101108.91;;;-13.60;67.69
59487;BME280;45298;54.918;73.504;2023-01-31T07:46:21;101139.03;;;-13.37;68.20
59487;BME280;45298;54.918;73.504;2023-01-31T07:48:50;101079.34;;;-13.73;67.56
59487;BME280;45298;54.918;73.504;2023-01-31T07:51:20;101128.25;;;-13.31;67.06
59487;BME280;45298;54.918;73.504;2023-01-31T07:53:48;101139.22;;;-13.33;66.79
59487;BME280;45298;54.918;73.504;2023-01-31T07:56:20;101116.84;;;-13.38;67.08
59487;BME280;45298;54.918;73.504;2023-01-31T07:58:49;101118.78;;;-13.33;67.01
59487;BME280;45298;54.918;73.504;2023-01-31T08:01:20;101121.28;;;-13.35;66.92
59487;BME280;45298;54.918;73.504;2023-01-31T08:04:10;101125.97;;;-13.26;66.57
59487;BME280;45298;54.918;73.504;2023-01-31T08:06:51;101096.31;;;-13.41;66.76
59487;BME280;45298;54.918;73.504;2023-01-31T08:09:22;101132.50;;;-13.31;66.83
59487;BME280;45298;54.918;73.504;2023-01-31T08:11:52;101107.97;;;-13.46;66.53
59487;BME280;45298;54.918;73.504;2023-01-31T08:14:21;101117.75;;;-13.37;66.87
59487;BME280;45298;54.918;73.504;2023-01-31T08:16:53;101107.09;;;-13.46;66.48
59487;BME280;45298;54.918;73.504;2023-01-31T08:19:22;101113.22;;;-13.43;66.29
59487;BME280;45298;54.918;73.504;2023-01-31T08:21:51;101149.25;;;-13.37;66.39
59487;BME280;45298;54.918;73.504;2023-01-31T08:24:20;101105.09;;;-13.69;67.14
59487;BME280;45298;54.918;73.504;2023-01-31T08:26:48;101112.81;;;-13.67;67.06
59487;BME280;45298;54.918;73.504;2023-01-31T08:29:17;101128.03;;;-13.69;66.61
59487;BME280;45298;54.918;73.504;2023-01-31T08:31:46;101041.22;;;-14.18;67.00
59487;BME280;45298;54.918;73.504;2023-01-31T08:34:18;101122.53;;;-13.76;67.08
59487;BME280;45298;54.918;73.504;2023-01-31T08:36:47;101085.44;;;-14.03;66.58
59487;BME280;45298;54.918;73.504;2023-01-31T08:39:16;101115.88;;;-13.89;67.21
59487;BME280;45298;54.918;73.504;2023-01-31T08:41:45;101138.53;;;-13.79;66.61
59487;BME280;45298;54.918;73.504;2023-01-31T08:44:15;101137.84;;;-13.76;66.81
59487;BME280;45298;54.918;73.504;2023-01-31T08:46:43;101107.44;;;-13.88;66.95
59487;BME280;45298;54.918;73.504;2023-01-31T08:49:13;101126.34;;;-13.68;66.97
59487;BME280;45298;54.918;73.504;2023-01-31T08:51:42;101129.19;;;-13.63;66.53
59487;BME280;45298;54.918;73.504;2023-01-31T08:54:12;101111.25;;;-13.80;66.65
59487;BME280;45298;54.918;73.504;2023-01-31T08:56:42;101075.53;;;-13.97;67.11
59487;BME280;45298;54.918;73.504;2023-01-31T08:59:11;101115.97;;;-13.71;66.93
59487;BME280;45298;54.918;73.504;2023-01-31T09:01:40;101083.34;;;-13.93;66.95
59487;BME280;45298;54.918;73.504;2023-01-31T09:04:09;101020.91;;;-14.33;67.19
59487;BME280;45298;54.918;73.504;2023-01-31T09:06:57;101099.78;;;-13.88;67.49
59487;BME280;45298;54.918;73.504;2023-01-31T09:09:25;101117.66;;;-13.88;66.55
59487;BME280;45298;54.918;73.504;2023-01-31T09:11:56;101022.69;;;-14.47;67.08
59487;BME280;45298;54.918;73.504;2023-01-31T09:14:25;101112.81;;;-13.99;67.13
59487;BME280;45298;54.918;73.504;2023-01-31T09:16:53;101099.03;;;-14.02;67.41
59487;BME280;45298;54.918;73.504;2023-01-31T09:19:22;101122.03;;;-13.86;67.45
59487;BME280;45298;54.918;73.504;2023-01-31T09:21:51;101106.94;;;-13.98;67.49
59487;BME280;45298;54.918;73.504;2023-01-31T09:24:19;101113.47;;;-14.03;67.35
59487;BME280;45298;54.918;73.504;2023-01-31T09:26:50;101094.25;;;-14.13;66.95
59487;BME280;45298;54.918;73.504;2023-01-31T09:29:21;101124.88;;;-13.96;67.58
59487;BME280;45298;54.918;73.504;2023-01-31T09:31:50;101089.47;;;-14.21;67.68
59487;BME280;45298;54.918;73.504;2023-01-31T09:34:19;101103.19;;;-14.19;67.12
59487;BME280;45298;54.918;73.504;2023-01-31T09:36:49;101052.56;;;-14.45;67.52
59487;BME280;45298;54.918;73.504;2023-01-31T09:39:18;101122.53;;;-14.08;67.37
59487;BME280;45298;54.918;73.504;2023-01-31T09:41:49;101117.69;;;-14.18;67.64
59487;BME280;45298;54.918;73.504;2023-01-31T09:44:36;101130.44;;;-14.03;66.77
59487;BME280;45298;54.918;73.504;2023-01-31T09:47:15;101135.34;;;-14.06;67.16
59487;BME280;45298;54.918;73.504;2023-01-31T09:49:51;101110.78;;;-14.21;67.39
59487;BME280;45298;54.918;73.504;2023-01-31T09:52:22;101114.66;;;-14.28;67.20
59487;BME280;45298;54.918;73.504;2023-01-31T09:54:51;101133.97;;;-14.16;67.50
59487;BME280;45298;54.918;73.504;2023-01-31T10:00:31;101144.94;;;-14.17;67.78
59487;BME280;45298;54.918;73.504;2023-01-31T10:03:18;101108.25;;;-14.36;67.55
59487;BME280;45298;54.918;73.504;2023-01-31T10:11:53;101113.28;;;-14.52;67.52
59487;BME280;45298;54.918;73.504;2023-01-31T10:25:22;101146.50;;;-14.66;68.12
59487;BME280;45298;54.918;73.504;2023-01-31T10:28:01;101127.44;;;-14.87;67.97
59487;BME280;45298;54.918;73.504;2023-01-31T10:30:56;101087.38;;;-15.20;68.27
59487;BME280;45298;54.918;73.504;2023-01-31T10:33:46;101119.78;;;-15.02;68.63
59487;BME280;45298;54.918;73.504;2023-01-31T10:36:26;101118.34;;;-15.12;67.97
59487;BME280;45298;54.918;73.504;2023-01-31T10:42:35;101137.22;;;-15.24;67.52
59487;BME280;45298;54.918;73.504;2023-01-31T10:47:55;101110.34;;;-15.62;68.46
59487;BME280;45298;54.918;73.504;2023-01-31T10:50:39;101108.97;;;-15.70;68.65
59487;BME280;45298;54.918;73.504;2023-01-31T10:53:42;101141.66;;;-15.63;68.49
59487;BME280;45298;54.918;73.504;2023-01-31T10:58:41;101090.91;;;-16.17;68.86
59487;BME280;45298;54.918;73.504;2023-01-31T11:01:10;101107.91;;;-16.16;69.42
59487;BME280;45298;54.918;73.504;2023-01-31T11:03:50;101102.97;;;-16.28;69.36
59487;BME280;45298;54.918;73.504;2023-01-31T11:06:20;101107.44;;;-16.37;68.72
59487;BME280;45298;54.918;73.504;2023-01-31T11:09:00;101128.47;;;-16.39;68.90
59487;BME280;45298;54.918;73.504;2023-01-31T11:11:29;101073.72;;;-16.75;69.99
59487;BME280;45298;54.918;73.504;2023-01-31T11:14:06;101098.03;;;-16.78;70.09
59487;BME280;45298;54.918;73.504;2023-01-31T11:16:44;101125.59;;;-16.71;69.52
59487;BME280;45298;54.918;73.504;2023-01-31T11:19:39;101127.81;;;-16.76;69.44
59487;BME280;45298;54.918;73.504;2023-01-31T11:22:28;101105.94;;;-17.00;69.72
59487;BME280;45298;54.918;73.504;2023-01-31T11:24:59;101140.69;;;-16.86;69.17
59487;BME280;45298;54.918;73.504;2023-01-31T11:27:42;101057.06;;;-17.37;70.23
59487;BME280;45298;54.918;73.504;2023-01-31T11:30:32;101139.72;;;-17.02;69.59
59487;BME280;45298;54.918;73.504;2023-01-31T11:33:02;101129.66;;;-17.25;70.33
59487;BME280;45298;54.918;73.504;2023-01-31T11:35:33;101111.63;;;-17.30;69.94
59487;BME280;45298;54.918;73.504;2023-01-31T11:38:22;101069.22;;;-17.70;70.54
59487;BME280;45298;54.918;73.504;2023-01-31T11:40:50;101086.41;;;-17.66;70.05
59487;BME280;45298;54.918;73.504;2023-01-31T11:45:59;101136.84;;;-17.57;70.63
59487;BME280;45298;54.918;73.504;2023-01-31T11:48:40;101138.19;;;-17.74;70.29
59487;BME280;45298;54.918;73.504;2023-01-31T11:51:12;101141.53;;;-17.75;70.37
59487;BME280;45298;54.918;73.504;2023-01-31T11:53:51;101105.03;;;-18.02;70.89
59487;BME280;45298;54.918;73.504;2023-01-31T11:56:27;101141.97;;;-17.93;71.01
59487;BME280;45298;54.918;73.504;2023-01-31T11:59:01;101139.63;;;-18.03;70.58
59487;BME280;45298;54.918;73.504;2023-01-31T12:01:31;101172.00;;;-17.99;70.65
59487;BME280;45298;54.918;73.504;2023-01-31T12:04:04;101145.59;;;-18.14;70.79
59487;BME280;45298;54.918;73.504;2023-01-31T12:06:36;101159.44;;;-18.09;70.59
59487;BME280;45298;54.918;73.504;2023-01-31T12:09:26;101154.72;;;-18.16;70.82
59487;BME280;45298;54.918;73.504;2023-01-31T12:11:59;101147.00;;;-18.30;71.27
59487;BME280;45298;54.918;73.504;2023-01-31T12:14:39;101126.41;;;-18.46;71.40
59487;BME280;45298;54.918;73.504;2023-01-31T12:17:14;101121.34;;;-18.46;71.32
59487;BME280;45298;54.918;73.504;2023-01-31T12:20:05;101173.31;;;-18.28;71.22
59487;BME280;45298;54.918;73.504;2023-01-31T12:23:18;101183.97;;;-18.32;71.07
59487;BME280;45298;54.918;73.504;2023-01-31T12:26:03;101186.41;;;-18.33;71.16
59487;BME280;45298;54.918;73.504;2023-01-31T12:48:06;101154.34;;;-18.68;71.46
59487;BME280;45298;54.918;73.504;2023-01-31T12:53:53;101182.72;;;-18.73;71.74
59487;BME280;45298;54.918;73.504;2023-01-31T13:02:11;101175.88;;;-18.86;71.94
59487;BME280;45298;54.918;73.504;2023-01-31T13:05:07;101175.88;;;-18.86;72.13
59487;BME280;45298;54.918;73.504;2023-01-31T13:07:37;101179.41;;;-18.83;71.71
59487;BME280;45298;54.918;73.504;2023-01-31T13:13:15;101146.16;;;-19.12;71.25
59487;BME280;45298;54.918;73.504;2023-01-31T13:15:57;101172.13;;;-19.03;71.61
59487;BME280;45298;54.918;73.504;2023-01-31T13:18:31;101177.59;;;-19.08;71.77
59487;BME280;45298;54.918;73.504;2023-01-31T13:21:07;101137.06;;;-19.32;71.95
59487;BME280;45298;54.918;73.504;2023-01-31T13:23:42;101153.22;;;-19.30;71.48
59487;BME280;45298;54.918;73.504;2023-01-31T13:26:22;101155.97;;;-19.27;71.99
59487;BME280;45298;54.918;73.504;2023-01-31T13:28:59;101175.63;;;-19.12;71.82
59487;BME280;45298;54.918;73.504;2023-01-31T13:31:56;101117.84;;;-19.52;72.05
59487;BME280;45298;54.918;73.504;2023-01-31T13:34:33;101175.78;;;-19.21;72.36
59487;BME280;45298;54.918;73.504;2023-01-31T13:37:08;101142.28;;;-19.41;72.21
59487;BME280;45298;54.918;73.504;2023-01-31T13:39:41;101157.69;;;-19.38;72.37
59487;BME280;45298;54.918;73.504;2023-01-31T13:42:14;101190.56;;;-19.16;72.66
59487;BME280;45298;54.918;73.504;2023-01-31T13:44:46;101071.69;;;-19.84;72.51
59487;BME280;45298;54.918;73.504;2023-01-31T13:47:26;101193.53;;;-19.09;72.84
59487;BME280;45298;54.918;73.504;2023-01-31T13:50:37;101156.97;;;-19.25;72.33
59487;BME280;45298;54.918;73.504;2023-01-31T13:52:59;101102.88;;;-19.61;72.24
59487;BME280;45298;54.918;73.504;2023-01-31T13:55:36;101181.00;;;-19.08;72.33
59487;BME280;45298;54.918;73.504;2023-01-31T13:58:22;101150.16;;;-19.26;72.68
59487;BME280;45298;54.918;73.504;2023-01-31T14:01:16;101184.22;;;-18.98;72.54
59487;BME280;45298;54.918;73.504;2023-01-31T14:09:28;101188.53;;;-18.86;72.22
59487;BME280;45298;54.918;73.504;2023-01-31T14:14:41;101075.66;;;-19.53;72.02
59487;BME280;45298;54.918;73.504;2023-01-31T14:20:30;101190.06;;;-18.88;72.94
59487;BME280;45298;54.918;73.504;2023-01-31T14:23:29;101169.19;;;-18.97;72.54
59487;BME280;45298;54.918;73.504;2023-01-31T14:25:59;101166.84;;;-19.06;72.24
59487;BME280;45298;54.918;73.504;2023-01-31T14:28:28;101198.53;;;-18.87;72.52
59487;BME280;45298;54.918;73.504;2023-01-31T14:30:57;101186.50;;;-19.02;72.31
59487;BME280;45298;54.918;73.504;2023-01-31T14:33:45;101125.72;;;-19.37;72.48
59487;BME280;45298;54.918;73.504;2023-01-31T14:36:47;101203.81;;;-18.96;72.67
59487;BME280;45298;54.918;73.504;2023-01-31T14:39:29;101198.53;;;-18.99;72.31
59487;BME280;45298;54.918;73.504;2023-01-31T14:42:26;101206.66;;;-19.03;72.99
59487;BME280;45298;54.918;73.504;2023-01-31T14:48:01;101213.66;;;-19.11;72.73
59487;BME280;45298;54.918;73.504;2023-01-31T14:53:34;101192.44;;;-19.35;72.75
59487;BME280;45298;54.918;73.504;2023-01-31T14:56:32;101191.47;;;-19.48;73.00
59487;BME280;45298;54.918;73.504;2023-01-31T14:59:35;101122.28;;;-19.94;73.26